createdAt,value
2023-05-09T00:00:40.010Z,92975.06
2023-05-09T00:03:09.675Z,92969.47
2023-05-09T00:05:39.160Z,92968.28
2023-05-09T00:08:08.821Z,92958.19
2023-05-09T00:10:39.677Z,92954.75
2023-05-09T00:13:09.470Z,92961.75
2023-05-09T00:15:39.309Z,92964.72
2023-05-09T00:18:09.425Z,92965.06
2023-05-09T00:20:41.198Z,92969.47
2023-05-09T00:23:10.662Z,92962.69
2023-05-09T00:25:41.532Z,92957.69
2023-05-09T00:28:11.278Z,92966.34
2023-05-09T00:30:40.775Z,92968.75
2023-05-09T00:33:10.359Z,92965.88
2023-05-09T00:35:40.133Z,92967.03
2023-05-09T00:38:09.752Z,92975.84
2023-05-09T00:40:43.628Z,92978.66
2023-05-09T00:43:13.073Z,92979.72
2023-05-09T00:45:42.707Z,92979.00
2023-05-09T00:49:43.592Z,92975.56
2023-05-09T00:52:13.218Z,92976.75
2023-05-09T00:54:42.717Z,92987.28
2023-05-09T00:57:12.193Z,92983.75
2023-05-09T00:59:41.723Z,92980.63
2023-05-09T01:02:11.327Z,92978.25
2023-05-09T01:04:42.742Z,92983.56
2023-05-09T01:07:21.101Z,92980.75
2023-05-09T01:10:01.383Z,92985.34
2023-05-09T01:12:39.070Z,92984.19
2023-05-09T01:15:15.898Z,92983.75
2023-05-09T01:17:55.686Z,92991.34
2023-05-09T01:20:35.556Z,92988.84
2023-05-09T01:23:36.826Z,92982.06
2023-05-09T01:26:08.795Z,92983.84
2023-05-09T01:29:07.874Z,92988.00
2023-05-09T01:31:43.811Z,92992.50
2023-05-09T01:34:17.484Z,92987.28
2023-05-09T01:36:49.418Z,92987.28
2023-05-09T01:39:21.150Z,92983.84
2023-05-09T01:41:50.863Z,92988.78
2023-05-09T01:44:21.083Z,92992.56
2023-05-09T01:46:54.271Z,92986.31
2023-05-09T01:49:25.199Z,92982.75
2023-05-09T01:51:56.663Z,92992.34
2023-05-09T01:54:27.016Z,92984.88
2023-05-09T01:56:58.170Z,92985.31
2023-05-09T01:59:29.367Z,92985.88
2023-05-09T02:02:01.155Z,92981.47
2023-05-09T02:04:32.282Z,92990.03
2023-05-09T02:07:03.350Z,92995.81
2023-05-09T02:09:33.088Z,92995.00
2023-05-09T02:12:04.846Z,92992.16
2023-05-09T02:14:34.583Z,92993.22
2023-05-09T02:17:07.174Z,93001.97
2023-05-09T02:19:38.102Z,92999.34
2023-05-09T02:22:07.708Z,93001.88
2023-05-09T02:24:37.594Z,93003.16
2023-05-09T02:27:08.156Z,93006.81
2023-05-09T02:29:42.263Z,93005.03
2023-05-09T02:32:17.917Z,93003.59
2023-05-09T02:34:49.758Z,93001.94
2023-05-09T02:37:20.875Z,93002.63
2023-05-09T02:39:50.522Z,93014.03
2023-05-09T02:42:26.594Z,93014.03
2023-05-09T02:44:56.389Z,93015.81
2023-05-09T02:47:27.365Z,93016.03
2023-05-09T02:49:56.803Z,93011.75
2023-05-09T02:52:26.447Z,93016.25
2023-05-09T02:54:55.981Z,93021.78
2023-05-09T02:57:25.398Z,93016.47
2023-05-09T02:59:54.886Z,93019.69
2023-05-09T03:02:26.417Z,93019.78
2023-05-09T03:04:55.854Z,93018.13
2023-05-09T03:07:25.412Z,93022.63
2023-05-09T03:09:54.989Z,93020.13
2023-05-09T03:12:24.462Z,93032.47
2023-05-09T03:14:53.956Z,93037.69
2023-05-09T03:17:23.547Z,93030.78
2023-05-09T03:19:54.390Z,93031.00
2023-05-09T03:22:23.783Z,93037.88
2023-05-09T03:24:53.229Z,93039.66
2023-05-09T03:27:22.637Z,93038.72
2023-05-09T03:29:52.075Z,93043.72
2023-05-09T03:32:21.715Z,93048.13
2023-05-09T03:34:52.752Z,93052.38
2023-05-09T03:37:22.374Z,93047.88
2023-05-09T03:39:51.824Z,93051.44
2023-05-09T03:42:21.742Z,93058.75
2023-05-09T03:44:51.386Z,93056.34
2023-05-09T03:50:43.534Z,93059.28
2023-05-09T03:53:13.042Z,93058.66
2023-05-09T03:55:42.622Z,93060.38
2023-05-09T03:58:12.802Z,93067.47
2023-05-09T04:00:43.377Z,93071.97
2023-05-09T04:03:12.977Z,93069.66
2023-05-09T04:05:44.535Z,93073.94
2023-05-09T04:08:28.363Z,93081.66
2023-05-09T04:10:57.844Z,93086.88
2023-05-09T04:13:28.458Z,93090.00
2023-05-09T04:15:58.050Z,93090.84
2023-05-09T04:18:27.504Z,93099.91
2023-05-09T04:20:58.572Z,93089.78
2023-05-09T04:23:28.337Z,93089.28
2023-05-09T04:25:57.976Z,93089.78
2023-05-09T04:28:27.531Z,93073.31
2023-05-09T04:30:57.604Z,93092.41
2023-05-09T04:33:29.386Z,93090.03
2023-05-09T04:36:00.310Z,93088.63
2023-05-09T04:38:29.994Z,93089.59
2023-05-09T04:40:59.583Z,93090.84
2023-05-09T04:43:30.047Z,93094.59
2023-05-09T04:45:59.578Z,93092.72
2023-05-09T04:48:29.088Z,93088.31
2023-05-09T04:50:59.958Z,93094.59
2023-05-09T04:53:29.960Z,93091.25
2023-05-09T04:55:59.391Z,93094.69
2023-05-09T04:58:28.886Z,93096.09
2023-05-09T05:00:58.418Z,93096.22
2023-05-09T05:03:27.848Z,93096.34
2023-05-09T05:05:58.653Z,93094.13
2023-05-09T05:08:28.008Z,93087.34
2023-05-09T05:10:57.614Z,93094.69
2023-05-09T05:13:27.471Z,93098.88
2023-05-09T05:15:59.042Z,93100.25
2023-05-09T05:18:28.874Z,93091.56
2023-05-09T05:20:59.907Z,93093.75
2023-05-09T05:23:29.323Z,93095.53
2023-05-09T05:25:58.852Z,93091.56
2023-05-09T05:28:28.366Z,93096.47
2023-05-09T05:30:57.761Z,93096.88
2023-05-09T05:33:27.253Z,93098.09
2023-05-09T05:35:56.619Z,93097.28
2023-05-09T05:38:27.660Z,93087.31
2023-05-09T05:40:57.001Z,93100.13
2023-05-09T05:43:26.483Z,93097.38
2023-05-09T05:45:56.855Z,93098.22
2023-05-09T05:48:27.008Z,93103.31
2023-05-09T05:50:56.438Z,93109.03
2023-05-09T05:53:27.394Z,93101.72
2023-05-09T05:55:56.948Z,93104.22
2023-05-09T05:58:26.820Z,93108.28
2023-05-09T06:00:56.320Z,93110.41
2023-05-09T06:03:26.009Z,93113.53
2023-05-09T06:05:56.275Z,93117.50
2023-05-09T06:08:27.285Z,93116.91
2023-05-09T06:10:56.679Z,93115.97
2023-05-09T06:13:26.284Z,93110.63
2023-05-09T06:16:07.854Z,93114.19
2023-05-09T06:18:45.147Z,93114.06
2023-05-09T06:21:14.747Z,93111.56
2023-05-09T06:24:01.537Z,93111.47
2023-05-09T06:26:35.237Z,93118.16
2023-05-09T06:29:04.681Z,93114.91
2023-05-09T06:31:36.211Z,93112.22
2023-05-09T06:34:05.665Z,93116.03
2023-05-09T06:36:35.159Z,93115.97
2023-05-09T06:39:06.243Z,93112.53
2023-05-09T06:41:35.790Z,93115.19
2023-05-09T06:44:05.286Z,93123.13
2023-05-09T06:46:35.119Z,93120.22
2023-05-09T06:50:43.483Z,93114.47
2023-05-09T06:53:12.957Z,93118.25
2023-05-09T06:55:42.490Z,93119.53
2023-05-09T06:58:12.558Z,93114.84
2023-05-09T07:00:42.224Z,93124.97
2023-05-09T07:03:11.976Z,93117.16
2023-05-09T07:05:43.212Z,93119.22
2023-05-09T07:08:12.781Z,93116.94
2023-05-09T07:10:42.556Z,93115.78
2023-05-09T07:13:12.144Z,93119.84
2023-05-09T07:15:43.072Z,93124.84
2023-05-09T07:18:12.901Z,93123.09
2023-05-09T07:20:43.961Z,93126.34
2023-05-09T07:23:13.478Z,93128.31
2023-05-09T07:25:44.217Z,93132.41
2023-05-09T07:28:13.816Z,93131.19
2023-05-09T07:30:43.930Z,93132.75
2023-05-09T07:33:13.427Z,93129.22
2023-05-09T07:35:44.453Z,93137.25
2023-05-09T07:38:14.925Z,93133.25
2023-05-09T07:40:44.466Z,93130.25
2023-05-09T07:43:13.973Z,93129.50
2023-05-09T07:45:43.580Z,93130.94
2023-05-09T07:48:13.012Z,93138.84
2023-05-09T07:50:44.006Z,93129.69
2023-05-09T07:53:13.611Z,93134.34
2023-05-09T07:55:44.812Z,93131.84
2023-05-09T07:58:14.436Z,93140.78
2023-05-09T08:00:44.079Z,93137.16
2023-05-09T08:03:13.685Z,93145.06
2023-05-09T08:05:44.679Z,93148.00
2023-05-09T08:08:14.101Z,93142.31
2023-05-09T08:10:43.581Z,93146.38
2023-05-09T08:13:13.652Z,93158.03
2023-05-09T08:15:43.417Z,93158.25
2023-05-09T08:18:13.138Z,93153.13
2023-05-09T08:20:44.177Z,93156.16
2023-05-09T08:23:14.003Z,93156.41
2023-05-09T08:25:43.641Z,93151.13
2023-05-09T08:28:13.162Z,93158.47
2023-05-09T08:30:42.539Z,93147.63
2023-05-09T08:33:12.114Z,93148.75
2023-05-09T08:35:41.806Z,93147.97
2023-05-09T08:38:13.079Z,93148.19
2023-05-09T08:40:43.910Z,93155.59
2023-05-09T08:43:15.191Z,93141.63
2023-05-09T08:45:52.583Z,93141.09
2023-05-09T08:48:23.713Z,93148.91
2023-05-09T08:50:53.758Z,93151.03
2023-05-09T08:53:24.960Z,93150.72
2023-05-09T08:55:55.001Z,93149.38
2023-05-09T08:58:24.639Z,93148.72
2023-05-09T09:00:55.842Z,93140.50
2023-05-09T09:03:27.014Z,93149.38
2023-05-09T09:05:58.242Z,93144.97
2023-05-09T09:08:30.513Z,93150.31
2023-05-09T09:11:00.588Z,93146.03
2023-05-09T09:13:31.483Z,93140.91
2023-05-09T09:16:03.000Z,93140.50
2023-05-09T09:18:36.119Z,93146.47
2023-05-09T09:21:11.166Z,93137.88
2023-05-09T09:23:45.369Z,93133.31
2023-05-09T09:26:14.947Z,93138.75
2023-05-09T09:28:44.748Z,93134.16
2023-05-09T09:31:25.526Z,93136.63
2023-05-09T09:33:55.088Z,93139.84
2023-05-09T09:36:32.633Z,93139.94
2023-05-09T09:39:06.247Z,93142.50
2023-05-09T09:41:37.093Z,93145.06
2023-05-09T09:44:10.205Z,93142.22
2023-05-09T09:46:48.558Z,93149.09
2023-05-09T09:50:43.296Z,93140.75
2023-05-09T09:53:12.833Z,93139.09
2023-05-09T09:55:53.653Z,93137.44
2023-05-09T09:58:25.347Z,93131.16
2023-05-09T10:01:08.646Z,93141.06
2023-05-09T10:03:40.157Z,93138.66
2023-05-09T10:06:16.320Z,93137.44
2023-05-09T10:08:47.968Z,93135.88
2023-05-09T10:11:17.852Z,93138.84
2023-05-09T10:13:48.811Z,93135.47
2023-05-09T10:16:21.453Z,93146.66
2023-05-09T10:18:58.337Z,93149.13
2023-05-09T10:21:29.673Z,93147.66
2023-05-09T10:23:59.514Z,93152.16
2023-05-09T10:26:34.510Z,93146.31
2023-05-09T10:29:11.866Z,93150.69
2023-05-09T10:31:43.268Z,93150.50
2023-05-09T10:34:14.139Z,93148.28
2023-05-09T10:36:45.732Z,93153.09
2023-05-09T10:39:16.199Z,93151.03
2023-05-09T10:41:45.975Z,93151.56
2023-05-09T10:44:15.467Z,93151.25
2023-05-09T10:46:45.718Z,93147.69
2023-05-09T10:49:15.657Z,93146.03
2023-05-09T10:51:46.740Z,93146.34
2023-05-09T10:54:18.105Z,93149.06
2023-05-09T10:56:47.584Z,93148.75
2023-05-09T10:59:38.801Z,93151.44
2023-05-09T11:02:14.566Z,93155.81
2023-05-09T11:04:44.590Z,93153.34
2023-05-09T11:07:27.847Z,93147.28
2023-05-09T11:10:11.719Z,93153.13
2023-05-09T11:12:58.178Z,93151.25
2023-05-09T11:15:28.276Z,93146.97
2023-05-09T11:18:09.369Z,93153.13
2023-05-09T11:20:46.106Z,93154.69
2023-05-09T11:23:19.073Z,93150.94
2023-05-09T11:25:49.495Z,93154.94
2023-05-09T11:28:30.768Z,93153.25
2023-05-09T11:31:12.809Z,93152.59
2023-05-09T11:33:45.308Z,93156.28
2023-05-09T11:36:20.279Z,93151.25
2023-05-09T11:38:51.226Z,93152.19
2023-05-09T11:41:21.450Z,93152.09
2023-05-09T11:43:52.465Z,93153.44
2023-05-09T11:46:21.952Z,93154.88
2023-05-09T11:48:52.025Z,93154.13
2023-05-09T11:51:22.238Z,93156.78
2023-05-09T11:53:54.376Z,93148.72
2023-05-09T11:56:24.662Z,93147.56
2023-05-09T11:58:54.962Z,93151.63
2023-05-09T12:01:25.874Z,93147.16
2023-05-09T12:03:55.473Z,93147.91
2023-05-09T12:06:26.404Z,93151.53
2023-05-09T12:08:58.862Z,93145.38
2023-05-09T12:11:28.361Z,93144.47
2023-05-09T12:13:57.840Z,93139.31
2023-05-09T12:16:27.375Z,93135.56
2023-05-09T12:18:56.999Z,93133.28
2023-05-09T12:21:28.734Z,93137.03
2023-05-09T12:24:00.002Z,93125.56
2023-05-09T12:26:29.676Z,93122.03
2023-05-09T12:28:59.971Z,93123.19
2023-05-09T12:31:29.776Z,93123.59
2023-05-09T12:33:59.309Z,93121.19
2023-05-09T12:36:28.782Z,93115.47
2023-05-09T12:38:59.758Z,93118.59
2023-05-09T12:41:39.240Z,93112.63
2023-05-09T12:44:11.598Z,93117.13
2023-05-09T12:46:41.580Z,93116.81
2023-05-09T12:50:49.210Z,93109.19
2023-05-09T12:53:27.348Z,93107.22
2023-05-09T12:56:04.341Z,93112.13
2023-05-09T12:58:34.527Z,93102.44
2023-05-09T13:01:07.101Z,93101.38
2023-05-09T13:03:39.178Z,93103.25
2023-05-09T13:06:15.983Z,93105.75
2023-05-09T13:08:46.502Z,93106.69
2023-05-09T13:11:18.272Z,93098.69
2023-05-09T13:13:47.842Z,93106.50
2023-05-09T13:16:17.950Z,93103.91
2023-05-09T13:18:47.638Z,93108.06
2023-05-09T13:21:18.511Z,93095.53
2023-05-09T13:23:50.347Z,93096.47
2023-05-09T13:26:19.848Z,93103.66
2023-05-09T13:28:49.359Z,93095.75
2023-05-09T13:31:19.649Z,93099.00
2023-05-09T13:33:51.595Z,93101.38
2023-05-09T13:36:23.099Z,93105.75
2023-05-09T13:38:52.470Z,93100.53
2023-05-09T13:41:23.400Z,93091.44
2023-05-09T13:43:52.919Z,93090.53
2023-05-09T13:46:22.403Z,93093.22
2023-05-09T13:48:51.990Z,93095.00
2023-05-09T13:51:23.976Z,93099.06
2023-05-09T13:53:53.439Z,93099.06
2023-05-09T13:56:23.056Z,93093.13
2023-05-09T13:58:52.522Z,93093.03
2023-05-09T14:01:22.082Z,93096.47
2023-05-09T14:03:51.636Z,93093.53
2023-05-09T14:06:22.593Z,93092.50
2023-05-09T14:08:52.202Z,93093.84
2023-05-09T14:11:21.714Z,93094.69
2023-05-09T14:13:52.782Z,93093.66
2023-05-09T14:16:22.632Z,93094.06
2023-05-09T14:18:52.052Z,93090.09
2023-05-09T14:21:22.956Z,93086.97
2023-05-09T14:23:52.736Z,93099.16
2023-05-09T14:26:22.464Z,93086.97
2023-05-09T14:28:51.896Z,93095.75
2023-05-09T14:31:21.571Z,93090.72
2023-05-09T14:33:51.237Z,93088.94
2023-05-09T14:36:22.210Z,93089.59
2023-05-09T14:38:51.790Z,93087.59
2023-05-09T14:41:22.581Z,93084.25
2023-05-09T14:43:52.586Z,93089.69
2023-05-09T14:46:22.978Z,93090.41
2023-05-09T14:48:53.060Z,93086.16
2023-05-09T14:51:24.102Z,93088.00
2023-05-09T14:53:53.663Z,93090.72
2023-05-09T14:56:23.544Z,93085.00
2023-05-09T14:58:52.929Z,93096.16
2023-05-09T15:01:22.623Z,93090.00
2023-05-09T15:03:52.098Z,93090.09
2023-05-09T15:06:23.671Z,93090.09
2023-05-09T15:08:53.036Z,93094.19
2023-05-09T15:11:24.045Z,93086.97
2023-05-09T15:13:56.084Z,93093.22
2023-05-09T15:16:25.517Z,93085.63
2023-05-09T15:18:55.445Z,93089.41
2023-05-09T15:21:29.000Z,93095.84
2023-05-09T15:23:58.670Z,93080.75
2023-05-09T15:26:28.342Z,93080.81
2023-05-09T15:28:57.802Z,93084.06
2023-05-09T15:31:27.499Z,93081.47
2023-05-09T15:33:56.971Z,93080.75
2023-05-09T15:36:29.708Z,93074.38
2023-05-09T15:38:58.854Z,93076.66
2023-05-09T15:41:28.885Z,93083.56
2023-05-09T15:43:58.279Z,93081.78
2023-05-09T15:46:28.543Z,93085.84
2023-05-09T15:50:45.277Z,93080.09
2023-05-09T15:53:15.881Z,93082.72
2023-05-09T15:55:45.957Z,93081.06
2023-05-09T15:58:16.726Z,93083.44
2023-05-09T16:00:46.859Z,93077.50
2023-05-09T16:03:16.470Z,93087.31
2023-05-09T16:05:47.589Z,93082.28
2023-05-09T16:08:17.305Z,93084.38
2023-05-09T16:10:49.269Z,93081.22
2023-05-09T16:13:19.089Z,93090.81
2023-05-09T16:15:50.395Z,93078.09
2023-05-09T16:18:19.977Z,93076.31
2023-05-09T16:20:50.894Z,93081.31
2023-05-09T16:23:21.294Z,93080.47
2023-05-09T16:25:51.072Z,93082.56
2023-05-09T16:28:23.720Z,93092.16
2023-05-09T16:30:52.955Z,93090.47
2023-05-09T16:33:22.387Z,93081.84
2023-05-09T16:35:53.433Z,93090.88
2023-05-09T16:38:24.373Z,93090.53
2023-05-09T16:40:53.920Z,93087.81
2023-05-09T16:43:23.562Z,93086.88
2023-05-09T16:45:53.173Z,93098.25
2023-05-09T16:48:22.696Z,93091.25
2023-05-09T16:50:54.396Z,93098.88
2023-05-09T16:53:24.882Z,93098.88
2023-05-09T16:55:56.267Z,93103.88
2023-05-09T16:58:26.099Z,93109.41
2023-05-09T17:00:56.476Z,93110.63
2023-05-09T17:03:26.226Z,93109.88
2023-05-09T17:05:57.135Z,93109.88
2023-05-09T17:08:26.681Z,93106.53
2023-05-09T17:10:56.260Z,93110.38
2023-05-09T17:13:25.804Z,93107.16
2023-05-09T17:15:55.438Z,93111.63
2023-05-09T17:18:35.891Z,93111.00
2023-05-09T17:21:08.111Z,93107.75
2023-05-09T17:23:37.713Z,93109.66
2023-05-09T17:26:07.186Z,93112.63
2023-05-09T17:28:37.166Z,93112.63
2023-05-09T17:31:06.904Z,93115.16
2023-05-09T17:33:36.500Z,93118.16
2023-05-09T17:36:07.958Z,93119.28
2023-05-09T17:38:37.661Z,93111.69
2023-05-09T17:41:07.398Z,93115.97
2023-05-09T17:43:36.896Z,93114.00
2023-05-09T17:46:06.524Z,93113.44
2023-05-09T17:48:36.219Z,93121.16
2023-05-09T17:51:07.368Z,93114.28
2023-05-09T17:53:36.923Z,93119.38
2023-05-09T17:56:06.826Z,93118.56
2023-05-09T17:58:36.385Z,93121.00
2023-05-09T18:01:06.061Z,93123.53
2023-05-09T18:03:35.693Z,93126.22
2023-05-09T18:06:07.077Z,93119.34
2023-05-09T18:08:36.981Z,93116.03
2023-05-09T18:11:06.616Z,93119.47
2023-05-09T18:13:36.098Z,93133.31
2023-05-09T18:16:05.653Z,93130.06
2023-05-09T18:18:36.839Z,93127.47
2023-05-09T18:21:09.722Z,93133.50
2023-05-09T18:23:39.309Z,93131.91
2023-05-09T18:26:09.886Z,93140.47
2023-05-09T18:28:41.108Z,93140.38
2023-05-09T18:31:12.500Z,93142.16
2023-05-09T18:33:42.332Z,93137.88
2023-05-09T18:36:15.309Z,93137.03
2023-05-09T18:38:44.808Z,93138.28
2023-05-09T18:41:15.823Z,93137.22
2023-05-09T18:43:47.221Z,93140.38
2023-05-09T18:46:18.101Z,93141.31
2023-05-09T18:50:43.198Z,93134.81
2023-05-09T18:53:12.700Z,93130.75
2023-05-09T18:55:43.130Z,93133.06
2023-05-09T18:58:12.644Z,93133.06
2023-05-09T19:00:43.049Z,93136.22
2023-05-09T19:03:12.810Z,93139.66
2023-05-09T19:05:44.285Z,93129.31
2023-05-09T19:08:13.808Z,93132.84
2023-05-09T19:10:43.888Z,93134.00
2023-05-09T19:13:16.073Z,93131.38
2023-05-09T19:15:45.818Z,93130.66
2023-05-09T19:18:15.294Z,93129.53
2023-05-09T19:20:47.567Z,93133.25
2023-05-09T19:23:16.922Z,93127.22
2023-05-09T19:25:46.801Z,93135.88
2023-05-09T19:28:17.642Z,93135.22
2023-05-09T19:30:47.567Z,93142.19
2023-05-09T19:33:17.096Z,93132.72
2023-05-09T19:35:48.159Z,93135.41
2023-05-09T19:38:17.618Z,93139.97
2023-05-09T19:40:49.041Z,93135.69
2023-05-09T19:43:18.753Z,93138.31
2023-05-09T19:45:48.292Z,93133.94
2023-05-09T19:48:17.736Z,93128.00
2023-05-09T19:50:49.042Z,93130.91
2023-05-09T19:53:18.465Z,93136.81
2023-05-09T19:55:48.091Z,93136.94
2023-05-09T19:58:18.022Z,93134.50
2023-05-09T20:00:47.819Z,93136.47
2023-05-09T20:03:17.314Z,93137.31
2023-05-09T20:05:48.201Z,93136.41
2023-05-09T20:08:17.778Z,93133.03
2023-05-09T20:10:47.132Z,93133.97
2023-05-09T20:13:16.524Z,93141.59
2023-05-09T20:15:45.915Z,93143.16
2023-05-09T20:18:16.544Z,93142.44
2023-05-09T20:20:47.390Z,93136.69
2023-05-09T20:23:16.679Z,93140.47
2023-05-09T20:25:46.258Z,93144.78
2023-05-09T20:28:20.182Z,93142.38
2023-05-09T20:30:49.790Z,93136.31
2023-05-09T20:33:19.420Z,93136.50
2023-05-09T20:35:50.479Z,93135.69
2023-05-09T20:38:20.025Z,93141.00
2023-05-09T20:40:49.481Z,93139.09
2023-05-09T20:43:19.338Z,93133.38
2023-05-09T20:45:48.983Z,93133.72
2023-05-09T20:48:18.500Z,93131.34
2023-05-09T20:50:49.432Z,93130.50
2023-05-09T20:53:19.154Z,93127.16
2023-05-09T20:55:50.372Z,93131.69
2023-05-09T20:58:20.018Z,93127.63
2023-05-09T21:00:49.884Z,93129.59
2023-05-09T21:03:19.630Z,93129.50
2023-05-09T21:05:50.639Z,93124.19
2023-05-09T21:08:19.968Z,93128.56
2023-05-09T21:10:49.512Z,93125.78
2023-05-09T21:13:18.923Z,93130.22
2023-05-09T21:15:51.606Z,93126.06
2023-05-09T21:18:21.653Z,93130.22
2023-05-09T21:20:52.403Z,93133.69
2023-05-09T21:23:22.398Z,93128.47
2023-05-09T21:25:51.829Z,93133.75
2023-05-09T21:28:21.407Z,93128.47
2023-05-09T21:30:53.869Z,93133.09
2023-05-09T21:33:23.879Z,93126.34
2023-05-09T21:35:54.801Z,93119.38
2023-05-09T21:38:24.449Z,93126.34
2023-05-09T21:40:53.892Z,93124.38
2023-05-09T21:43:23.271Z,93128.72
2023-05-09T21:45:52.840Z,93132.28
2023-05-09T21:50:45.124Z,93119.38
2023-05-09T21:53:14.692Z,93117.22
2023-05-09T21:55:44.220Z,93115.66
2023-05-09T21:58:13.650Z,93116.56
2023-05-09T22:00:43.005Z,93117.50
2023-05-09T22:03:12.555Z,93115.19
2023-05-09T22:05:43.421Z,93124.28
2023-05-09T22:08:13.039Z,93114.38
2023-05-09T22:10:42.507Z,93110.94
2023-05-09T22:13:11.918Z,93108.22
2023-05-09T22:15:41.328Z,93112.88
2023-05-09T22:18:11.583Z,93103.19
2023-05-09T22:20:42.769Z,93107.56
2023-05-09T22:23:12.186Z,93111.94
2023-05-09T22:25:41.695Z,93118.19
2023-05-09T22:28:11.050Z,93110.09
2023-05-09T22:30:40.652Z,93100.53
2023-05-09T22:33:10.138Z,93113.44
2023-05-09T22:35:39.665Z,93101.66
2023-05-09T22:38:10.488Z,93100.88
2023-05-09T22:40:40.102Z,93098.41
2023-05-09T22:43:10.652Z,93100.34
2023-05-09T22:45:40.176Z,93094.41
2023-05-09T22:48:10.134Z,93093.66
2023-05-09T22:50:39.755Z,93090.97
2023-05-09T22:53:10.710Z,93095.91
2023-05-09T22:55:40.239Z,93095.69
2023-05-09T22:58:09.803Z,93090.59
2023-05-09T23:00:39.523Z,93093.47
2023-05-09T23:03:09.022Z,93086.50
2023-05-09T23:05:38.577Z,93088.44
2023-05-09T23:08:09.558Z,93090.59
2023-05-09T23:10:39.057Z,93082.88
2023-05-09T23:13:08.570Z,93095.22
2023-05-09T23:15:38.298Z,93095.31
2023-05-09T23:18:08.284Z,93088.47
2023-05-09T23:20:38.616Z,93082.31
2023-05-09T23:23:09.609Z,93072.69
2023-05-09T23:25:39.292Z,93073.59
2023-05-09T23:28:08.753Z,93080.78
2023-05-09T23:30:38.467Z,93074.09
2023-05-09T23:33:07.928Z,93076.75
2023-05-09T23:35:37.427Z,93074.38
2023-05-09T23:38:06.850Z,93066.38
2023-05-09T23:40:38.633Z,93063.66
2023-05-09T23:43:08.095Z,93059.56
2023-05-09T23:45:37.575Z,93059.50
2023-05-09T23:48:08.651Z,93057.75
2023-05-09T23:50:38.200Z,93063.38
2023-05-09T23:53:07.654Z,93063.31
2023-05-09T23:55:38.511Z,93065.25
2023-05-09T23:58:07.915Z,93063.09
